sensor_id;sensor_type;location;lat;lon;timestamp;P1;durP1;ratioP1;P2;durP2;ratioP2
54145;SDS011;40052;49.422;7.738;2022-08-19T00:01:44;23.13;;;18.10;;
54145;SDS011;40052;49.422;7.738;2022-08-19T00:04:12;23.30;;;19.40;;
54145;SDS011;40052;49.422;7.738;2022-08-19T00:06:40;23.92;;;18.73;;
54145;SDS011;40052;49.422;7.738;2022-08-19T00:09:09;24.15;;;19.23;;
54145;SDS011;40052;49.422;7.738;2022-08-19T00:11:38;26.90;;;19.73;;
54145;SDS011;40052;49.422;7.738;2022-08-19T00:14:05;25.50;;;18.90;;
54145;SDS011;40052;49.422;7.738;2022-08-19T00:16:33;24.33;;;18.08;;
54145;SDS011;40052;49.422;7.738;2022-08-19T00:18:59;22.52;;;17.63;;
54145;SDS011;40052;49.422;7.738;2022-08-19T00:21:27;24.45;;;19.25;;
54145;SDS011;40052;49.422;7.738;2022-08-19T00:23:53;23.52;;;18.50;;
54145;SDS011;40052;49.422;7.738;2022-08-19T00:26:20;25.45;;;19.70;;
54145;SDS011;40052;49.422;7.738;2022-08-19T00:28:45;25.38;;;19.38;;
54145;SDS011;40052;49.422;7.738;2022-08-19T00:31:11;25.98;;;19.40;;
54145;SDS011;40052;49.422;7.738;2022-08-19T00:33:37;22.70;;;17.38;;
54145;SDS011;40052;49.422;7.738;2022-08-19T00:36:05;24.65;;;19.17;;
54145;SDS011;40052;49.422;7.738;2022-08-19T00:38:34;23.60;;;18.17;;
54145;SDS011;40052;49.422;7.738;2022-08-19T00:41:00;25.95;;;18.90;;
54145;SDS011;40052;49.422;7.738;2022-08-19T00:43:27;24.77;;;19.58;;
54145;SDS011;40052;49.422;7.738;2022-08-19T00:45:53;30.05;;;19.92;;
54145;SDS011;40052;49.422;7.738;2022-08-19T00:48:19;22.95;;;17.98;;
54145;SDS011;40052;49.422;7.738;2022-08-19T00:50:46;26.75;;;19.73;;
54145;SDS011;40052;49.422;7.738;2022-08-19T00:53:14;27.67;;;18.88;;
54145;SDS011;40052;49.422;7.738;2022-08-19T00:55:44;25.73;;;19.65;;
54145;SDS011;40052;49.422;7.738;2022-08-19T00:58:15;22.95;;;18.40;;
54145;SDS011;40052;49.422;7.738;2022-08-19T01:00:47;26.13;;;19.92;;
54145;SDS011;40052;49.422;7.738;2022-08-19T01:03:14;26.17;;;20.70;;
54145;SDS011;40052;49.422;7.738;2022-08-19T01:05:46;26.60;;;19.20;;
54145;SDS011;40052;49.422;7.738;2022-08-19T01:08:16;25.80;;;19.35;;
54145;SDS011;40052;49.422;7.738;2022-08-19T01:10:45;24.77;;;19.10;;
54145;SDS011;40052;49.422;7.738;2022-08-19T01:13:15;23.90;;;17.58;;
54145;SDS011;40052;49.422;7.738;2022-08-19T01:15:48;23.02;;;17.95;;
54145;SDS011;40052;49.422;7.738;2022-08-19T01:18:18;23.00;;;17.70;;
54145;SDS011;40052;49.422;7.738;2022-08-19T01:20:45;21.35;;;18.05;;
54145;SDS011;40052;49.422;7.738;2022-08-19T01:23:14;23.52;;;18.65;;
54145;SDS011;40052;49.422;7.738;2022-08-19T01:25:51;23.90;;;18.88;;
54145;SDS011;40052;49.422;7.738;2022-08-19T01:28:21;25.10;;;19.17;;
54145;SDS011;40052;49.422;7.738;2022-08-19T01:30:51;26.80;;;19.25;;
54145;SDS011;40052;49.422;7.738;2022-08-19T01:33:18;26.45;;;19.48;;
54145;SDS011;40052;49.422;7.738;2022-08-19T01:35:45;28.70;;;19.27;;
54145;SDS011;40052;49.422;7.738;2022-08-19T01:38:24;22.83;;;18.80;;
54145;SDS011;40052;49.422;7.738;2022-08-19T01:40:56;23.15;;;18.88;;
54145;SDS011;40052;49.422;7.738;2022-08-19T01:43:22;24.90;;;18.52;;
54145;SDS011;40052;49.422;7.738;2022-08-19T01:45:51;23.88;;;18.58;;
54145;SDS011;40052;49.422;7.738;2022-08-19T01:48:17;22.60;;;17.75;;
54145;SDS011;40052;49.422;7.738;2022-08-19T01:50:43;24.77;;;18.67;;
54145;SDS011;40052;49.422;7.738;2022-08-19T01:53:12;24.70;;;19.98;;
54145;SDS011;40052;49.422;7.738;2022-08-19T01:55:38;24.05;;;18.73;;
54145;SDS011;40052;49.422;7.738;2022-08-19T01:58:08;25.83;;;19.23;;
54145;SDS011;40052;49.422;7.738;2022-08-19T02:00:42;30.38;;;20.02;;
54145;SDS011;40052;49.422;7.738;2022-08-19T02:03:08;25.30;;;18.90;;
54145;SDS011;40052;49.422;7.738;2022-08-19T02:05:34;23.90;;;18.27;;
54145;SDS011;40052;49.422;7.738;2022-08-19T02:07:59;25.58;;;19.67;;
54145;SDS011;40052;49.422;7.738;2022-08-19T02:10:25;25.17;;;17.60;;
54145;SDS011;40052;49.422;7.738;2022-08-19T02:12:52;28.70;;;19.63;;
54145;SDS011;40052;49.422;7.738;2022-08-19T02:15:18;25.40;;;18.83;;
54145;SDS011;40052;49.422;7.738;2022-08-19T02:17:45;24.52;;;18.25;;
54145;SDS011;40052;49.422;7.738;2022-08-19T02:20:14;22.65;;;17.92;;
54145;SDS011;40052;49.422;7.738;2022-08-19T02:22:40;25.13;;;19.10;;
54145;SDS011;40052;49.422;7.738;2022-08-19T02:25:07;23.98;;;18.60;;
54145;SDS011;40052;49.422;7.738;2022-08-19T02:27:34;25.65;;;18.90;;
54145;SDS011;40052;49.422;7.738;2022-08-19T02:30:00;21.50;;;16.80;;
54145;SDS011;40052;49.422;7.738;2022-08-19T02:32:28;22.33;;;17.67;;
54145;SDS011;40052;49.422;7.738;2022-08-19T02:34:55;20.85;;;16.88;;
54145;SDS011;40052;49.422;7.738;2022-08-19T02:37:20;21.67;;;17.05;;
54145;SDS011;40052;49.422;7.738;2022-08-19T02:40:05;22.35;;;16.75;;
54145;SDS011;40052;49.422;7.738;2022-08-19T02:42:33;20.15;;;16.77;;
54145;SDS011;40052;49.422;7.738;2022-08-19T02:45:01;19.90;;;16.38;;
54145;SDS011;40052;49.422;7.738;2022-08-19T02:47:27;22.85;;;17.52;;
54145;SDS011;40052;49.422;7.738;2022-08-19T02:49:53;23.27;;;17.67;;
54145;SDS011;40052;49.422;7.738;2022-08-19T02:52:18;21.90;;;17.67;;
54145;SDS011;40052;49.422;7.738;2022-08-19T02:54:46;20.77;;;15.95;;
54145;SDS011;40052;49.422;7.738;2022-08-19T02:57:11;20.27;;;16.77;;
54145;SDS011;40052;49.422;7.738;2022-08-19T02:59:37;22.20;;;17.10;;
54145;SDS011;40052;49.422;7.738;2022-08-19T03:02:02;20.85;;;17.13;;
54145;SDS011;40052;49.422;7.738;2022-08-19T03:04:28;23.45;;;17.00;;
54145;SDS011;40052;49.422;7.738;2022-08-19T03:06:54;19.95;;;15.32;;
54145;SDS011;40052;49.422;7.738;2022-08-19T03:09:22;21.85;;;15.60;;
54145;SDS011;40052;49.422;7.738;2022-08-19T03:11:49;18.55;;;15.05;;
54145;SDS011;40052;49.422;7.738;2022-08-19T03:14:19;22.10;;;17.35;;
54145;SDS011;40052;49.422;7.738;2022-08-19T03:16:47;22.90;;;16.95;;
54145;SDS011;40052;49.422;7.738;2022-08-19T03:19:18;20.83;;;15.68;;
54145;SDS011;40052;49.422;7.738;2022-08-19T03:21:46;20.27;;;16.17;;
54145;SDS011;40052;49.422;7.738;2022-08-19T03:24:14;22.25;;;15.48;;
54145;SDS011;40052;49.422;7.738;2022-08-19T03:26:42;20.77;;;14.55;;
54145;SDS011;40052;49.422;7.738;2022-08-19T03:29:10;19.60;;;15.15;;
54145;SDS011;40052;49.422;7.738;2022-08-19T03:31:36;19.27;;;15.43;;
54145;SDS011;40052;49.422;7.738;2022-08-19T03:34:03;19.45;;;14.80;;
54145;SDS011;40052;49.422;7.738;2022-08-19T03:36:30;18.52;;;14.60;;
54145;SDS011;40052;49.422;7.738;2022-08-19T03:38:59;23.38;;;15.13;;
54145;SDS011;40052;49.422;7.738;2022-08-19T03:41:27;22.45;;;15.70;;
54145;SDS011;40052;49.422;7.738;2022-08-19T03:43:57;20.15;;;14.88;;
54145;SDS011;40052;49.422;7.738;2022-08-19T03:46:27;21.23;;;15.43;;
54145;SDS011;40052;49.422;7.738;2022-08-19T03:48:58;22.25;;;15.02;;
54145;SDS011;40052;49.422;7.738;2022-08-19T03:51:26;18.80;;;14.32;;
54145;SDS011;40052;49.422;7.738;2022-08-19T03:53:54;20.02;;;14.65;;
54145;SDS011;40052;49.422;7.738;2022-08-19T03:56:20;19.00;;;14.77;;
54145;SDS011;40052;49.422;7.738;2022-08-19T03:58:53;19.40;;;15.38;;
54145;SDS011;40052;49.422;7.738;2022-08-19T04:01:22;19.42;;;14.45;;
54145;SDS011;40052;49.422;7.738;2022-08-19T04:03:51;17.92;;;14.10;;
54145;SDS011;40052;49.422;7.738;2022-08-19T04:08:48;20.95;;;14.45;;
54145;SDS011;40052;49.422;7.738;2022-08-19T04:11:16;19.05;;;14.68;;
54145;SDS011;40052;49.422;7.738;2022-08-19T04:13:44;18.65;;;14.65;;
54145;SDS011;40052;49.422;7.738;2022-08-19T04:16:09;17.52;;;13.70;;
54145;SDS011;40052;49.422;7.738;2022-08-19T04:18:38;18.67;;;14.32;;
54145;SDS011;40052;49.422;7.738;2022-08-19T04:21:05;18.02;;;13.65;;
54145;SDS011;40052;49.422;7.738;2022-08-19T04:23:34;17.60;;;14.30;;
54145;SDS011;40052;49.422;7.738;2022-08-19T04:26:01;18.58;;;13.55;;
54145;SDS011;40052;49.422;7.738;2022-08-19T04:28:27;17.60;;;13.95;;
54145;SDS011;40052;49.422;7.738;2022-08-19T04:30:54;17.25;;;13.68;;
54145;SDS011;40052;49.422;7.738;2022-08-19T04:33:24;18.20;;;13.63;;
54145;SDS011;40052;49.422;7.738;2022-08-19T04:35:51;20.10;;;13.45;;
54145;SDS011;40052;49.422;7.738;2022-08-19T04:38:19;22.05;;;15.57;;
54145;SDS011;40052;49.422;7.738;2022-08-19T04:40:48;17.73;;;14.40;;
54145;SDS011;40052;49.422;7.738;2022-08-19T04:43:33;15.38;;;12.90;;
54145;SDS011;40052;49.422;7.738;2022-08-19T04:46:08;17.30;;;13.20;;
54145;SDS011;40052;49.422;7.738;2022-08-19T04:48:35;21.60;;;13.68;;
54145;SDS011;40052;49.422;7.738;2022-08-19T04:51:05;19.17;;;13.60;;
54145;SDS011;40052;49.422;7.738;2022-08-19T04:53:33;16.70;;;13.35;;
54145;SDS011;40052;49.422;7.738;2022-08-19T04:56:20;18.73;;;13.30;;
54145;SDS011;40052;49.422;7.738;2022-08-19T04:58:47;19.77;;;13.90;;
54145;SDS011;40052;49.422;7.738;2022-08-19T05:01:18;19.30;;;14.52;;
54145;SDS011;40052;49.422;7.738;2022-08-19T05:03:48;21.13;;;16.17;;
54145;SDS011;40052;49.422;7.738;2022-08-19T05:06:18;18.77;;;14.40;;
54145;SDS011;40052;49.422;7.738;2022-08-19T05:08:45;19.67;;;13.60;;
54145;SDS011;40052;49.422;7.738;2022-08-19T05:11:20;15.75;;;13.23;;
54145;SDS011;40052;49.422;7.738;2022-08-19T05:13:47;20.33;;;13.82;;
54145;SDS011;40052;49.422;7.738;2022-08-19T05:16:17;22.02;;;15.15;;
54145;SDS011;40052;49.422;7.738;2022-08-19T05:18:44;16.38;;;13.90;;
54145;SDS011;40052;49.422;7.738;2022-08-19T05:21:31;17.80;;;14.00;;
54145;SDS011;40052;49.422;7.738;2022-08-19T05:24:19;17.92;;;14.23;;
54145;SDS011;40052;49.422;7.738;2022-08-19T05:26:49;18.42;;;13.43;;
54145;SDS011;40052;49.422;7.738;2022-08-19T05:29:17;19.13;;;14.35;;
54145;SDS011;40052;49.422;7.738;2022-08-19T05:31:45;21.17;;;14.40;;
54145;SDS011;40052;49.422;7.738;2022-08-19T05:34:11;18.60;;;14.35;;
54145;SDS011;40052;49.422;7.738;2022-08-19T05:36:40;20.60;;;14.93;;
54145;SDS011;40052;49.422;7.738;2022-08-19T05:39:14;16.38;;;13.50;;
54145;SDS011;40052;49.422;7.738;2022-08-19T05:41:42;15.90;;;13.30;;
54145;SDS011;40052;49.422;7.738;2022-08-19T05:44:11;16.77;;;13.63;;
54145;SDS011;40052;49.422;7.738;2022-08-19T05:46:39;17.77;;;13.60;;
54145;SDS011;40052;49.422;7.738;2022-08-19T05:49:05;16.80;;;13.82;;
54145;SDS011;40052;49.422;7.738;2022-08-19T05:51:32;16.20;;;13.35;;
54145;SDS011;40052;49.422;7.738;2022-08-19T05:54:00;20.88;;;14.50;;
54145;SDS011;40052;49.422;7.738;2022-08-19T05:56:27;16.73;;;13.20;;
54145;SDS011;40052;49.422;7.738;2022-08-19T05:58:58;19.38;;;13.10;;
54145;SDS011;40052;49.422;7.738;2022-08-19T06:01:24;16.85;;;13.10;;
54145;SDS011;40052;49.422;7.738;2022-08-19T06:03:50;16.60;;;12.80;;
54145;SDS011;40052;49.422;7.738;2022-08-19T06:06:17;15.63;;;12.60;;
54145;SDS011;40052;49.422;7.738;2022-08-19T06:08:43;18.08;;;13.05;;
54145;SDS011;40052;49.422;7.738;2022-08-19T06:11:18;15.13;;;12.32;;
54145;SDS011;40052;49.422;7.738;2022-08-19T06:13:50;13.07;;;11.05;;
54145;SDS011;40052;49.422;7.738;2022-08-19T06:16:20;15.23;;;11.75;;
54145;SDS011;40052;49.422;7.738;2022-08-19T06:18:49;16.27;;;12.70;;
54145;SDS011;40052;49.422;7.738;2022-08-19T06:21:19;15.43;;;11.52;;
54145;SDS011;40052;49.422;7.738;2022-08-19T06:23:50;15.55;;;12.13;;
54145;SDS011;40052;49.422;7.738;2022-08-19T06:26:17;19.00;;;12.52;;
54145;SDS011;40052;49.422;7.738;2022-08-19T06:28:43;14.25;;;11.52;;
54145;SDS011;40052;49.422;7.738;2022-08-19T06:31:16;16.33;;;11.68;;
54145;SDS011;40052;49.422;7.738;2022-08-19T06:33:46;14.52;;;11.95;;
54145;SDS011;40052;49.422;7.738;2022-08-19T06:36:18;14.32;;;11.05;;
54145;SDS011;40052;49.422;7.738;2022-08-19T06:38:56;16.63;;;12.15;;
54145;SDS011;40052;49.422;7.738;2022-08-19T06:41:27;17.23;;;11.65;;
54145;SDS011;40052;49.422;7.738;2022-08-19T06:43:55;14.45;;;12.13;;
54145;SDS011;40052;49.422;7.738;2022-08-19T06:46:20;14.98;;;11.65;;
54145;SDS011;40052;49.422;7.738;2022-08-19T06:48:46;13.82;;;9.85;;
54145;SDS011;40052;49.422;7.738;2022-08-19T06:51:15;17.80;;;12.05;;
54145;SDS011;40052;49.422;7.738;2022-08-19T06:53:43;13.45;;;11.55;;
54145;SDS011;40052;49.422;7.738;2022-08-19T06:56:14;17.35;;;11.80;;
54145;SDS011;40052;49.422;7.738;2022-08-19T06:58:43;13.60;;;10.63;;
54145;SDS011;40052;49.422;7.738;2022-08-19T07:01:19;14.88;;;11.77;;
54145;SDS011;40052;49.422;7.738;2022-08-19T07:03:47;13.35;;;11.30;;
54145;SDS011;40052;49.422;7.738;2022-08-19T07:06:16;16.20;;;11.70;;
54145;SDS011;40052;49.422;7.738;2022-08-19T07:08:43;17.67;;;12.18;;
54145;SDS011;40052;49.422;7.738;2022-08-19T07:11:11;16.75;;;11.57;;
54145;SDS011;40052;49.422;7.738;2022-08-19T07:13:39;13.93;;;11.27;;
54145;SDS011;40052;49.422;7.738;2022-08-19T07:16:06;13.13;;;11.35;;
54145;SDS011;40052;49.422;7.738;2022-08-19T07:18:35;18.92;;;12.63;;
54145;SDS011;40052;49.422;7.738;2022-08-19T07:23:38;15.93;;;11.32;;
54145;SDS011;40052;49.422;7.738;2022-08-19T07:26:09;15.75;;;11.85;;
54145;SDS011;40052;49.422;7.738;2022-08-19T07:28:37;16.48;;;12.18;;
54145;SDS011;40052;49.422;7.738;2022-08-19T07:31:06;18.58;;;12.15;;
54145;SDS011;40052;49.422;7.738;2022-08-19T07:33:33;14.27;;;11.90;;
54145;SDS011;40052;49.422;7.738;2022-08-19T07:36:02;17.45;;;11.85;;
54145;SDS011;40052;49.422;7.738;2022-08-19T07:38:29;19.70;;;12.55;;
54145;SDS011;40052;49.422;7.738;2022-08-19T07:40:55;13.82;;;11.18;;
54145;SDS011;40052;49.422;7.738;2022-08-19T07:43:25;17.13;;;11.90;;
54145;SDS011;40052;49.422;7.738;2022-08-19T07:45:52;15.20;;;10.98;;
54145;SDS011;40052;49.422;7.738;2022-08-19T07:48:26;15.27;;;11.25;;
54145;SDS011;40052;49.422;7.738;2022-08-19T07:50:57;15.65;;;11.77;;
54145;SDS011;40052;49.422;7.738;2022-08-19T07:53:28;14.68;;;12.80;;
54145;SDS011;40052;49.422;7.738;2022-08-19T07:55:55;18.13;;;12.45;;
54145;SDS011;40052;49.422;7.738;2022-08-19T07:58:29;17.75;;;13.55;;
54145;SDS011;40052;49.422;7.738;2022-08-19T08:00:56;16.67;;;12.18;;
54145;SDS011;40052;49.422;7.738;2022-08-19T08:03:22;19.33;;;13.38;;
54145;SDS011;40052;49.422;7.738;2022-08-19T08:06:07;21.90;;;13.45;;
54145;SDS011;40052;49.422;7.738;2022-08-19T08:08:54;17.90;;;13.02;;
54145;SDS011;40052;49.422;7.738;2022-08-19T08:11:44;15.50;;;12.27;;
54145;SDS011;40052;49.422;7.738;2022-08-19T08:14:14;14.45;;;11.60;;
54145;SDS011;40052;49.422;7.738;2022-08-19T08:16:48;16.00;;;11.30;;
54145;SDS011;40052;49.422;7.738;2022-08-19T08:19:15;15.93;;;10.95;;
54145;SDS011;40052;49.422;7.738;2022-08-19T08:21:48;19.20;;;14.55;;
54145;SDS011;40052;49.422;7.738;2022-08-19T08:24:14;13.40;;;11.32;;
54145;SDS011;40052;49.422;7.738;2022-08-19T08:26:42;17.58;;;12.68;;
54145;SDS011;40052;49.422;7.738;2022-08-19T08:29:09;20.48;;;14.73;;
54145;SDS011;40052;49.422;7.738;2022-08-19T08:31:40;17.13;;;12.25;;
54145;SDS011;40052;49.422;7.738;2022-08-19T08:34:07;18.02;;;11.68;;
54145;SDS011;40052;49.422;7.738;2022-08-19T08:36:41;19.30;;;13.18;;
54145;SDS011;40052;49.422;7.738;2022-08-19T08:39:10;13.82;;;11.73;;
54145;SDS011;40052;49.422;7.738;2022-08-19T08:47:02;17.17;;;12.38;;
54145;SDS011;40052;49.422;7.738;2022-08-19T08:52:09;18.95;;;14.50;;
54145;SDS011;40052;49.422;7.738;2022-08-19T08:54:43;18.63;;;13.50;;
54145;SDS011;40052;49.422;7.738;2022-08-19T08:57:12;16.98;;;14.43;;
54145;SDS011;40052;49.422;7.738;2022-08-19T08:59:40;11.50;;;9.40;;
54145;SDS011;40052;49.422;7.738;2022-08-19T09:02:09;17.90;;;12.77;;
54145;SDS011;40052;49.422;7.738;2022-08-19T09:04:35;14.23;;;11.70;;
54145;SDS011;40052;49.422;7.738;2022-08-19T09:07:17;14.25;;;11.32;;
54145;SDS011;40052;49.422;7.738;2022-08-19T09:09:52;11.85;;;10.32;;
54145;SDS011;40052;49.422;7.738;2022-08-19T09:15:10;12.67;;;10.77;;
54145;SDS011;40052;49.422;7.738;2022-08-19T09:17:37;12.68;;;10.27;;
54145;SDS011;40052;49.422;7.738;2022-08-19T09:20:14;10.75;;;9.23;;
54145;SDS011;40052;49.422;7.738;2022-08-19T09:22:43;11.07;;;9.52;;
54145;SDS011;40052;49.422;7.738;2022-08-19T09:25:09;12.00;;;9.18;;
54145;SDS011;40052;49.422;7.738;2022-08-19T09:27:40;8.20;;;7.38;;
54145;SDS011;40052;49.422;7.738;2022-08-19T09:30:08;8.57;;;7.57;;
54145;SDS011;40052;49.422;7.738;2022-08-19T09:32:35;8.73;;;7.82;;
54145;SDS011;40052;49.422;7.738;2022-08-19T09:35:00;8.90;;;8.00;;
54145;SDS011;40052;49.422;7.738;2022-08-19T09:37:30;12.55;;;7.38;;
54145;SDS011;40052;49.422;7.738;2022-08-19T09:39:58;9.43;;;7.10;;
54145;SDS011;40052;49.422;7.738;2022-08-19T09:42:23;8.75;;;7.45;;
54145;SDS011;40052;49.422;7.738;2022-08-19T09:44:51;11.07;;;8.10;;
54145;SDS011;40052;49.422;7.738;2022-08-19T09:47:16;9.75;;;7.40;;
54145;SDS011;40052;49.422;7.738;2022-08-19T09:49:42;7.55;;;6.72;;
54145;SDS011;40052;49.422;7.738;2022-08-19T09:52:10;8.38;;;7.15;;
54145;SDS011;40052;49.422;7.738;2022-08-19T09:54:40;8.93;;;6.78;;
54145;SDS011;40052;49.422;7.738;2022-08-19T09:57:05;10.73;;;8.07;;
54145;SDS011;40052;49.422;7.738;2022-08-19T09:59:35;8.70;;;7.65;;
54145;SDS011;40052;49.422;7.738;2022-08-19T10:02:03;8.55;;;7.70;;
54145;SDS011;40052;49.422;7.738;2022-08-19T10:04:32;10.15;;;7.50;;
54145;SDS011;40052;49.422;7.738;2022-08-19T10:07:16;10.57;;;8.10;;
54145;SDS011;40052;49.422;7.738;2022-08-19T10:09:43;8.90;;;7.03;;
54145;SDS011;40052;49.422;7.738;2022-08-19T10:12:09;8.75;;;6.45;;
54145;SDS011;40052;49.422;7.738;2022-08-19T10:14:38;6.65;;;5.93;;
54145;SDS011;40052;49.422;7.738;2022-08-19T10:17:04;6.10;;;5.22;;
54145;SDS011;40052;49.422;7.738;2022-08-19T10:19:29;6.90;;;5.68;;
54145;SDS011;40052;49.422;7.738;2022-08-19T10:22:02;5.68;;;5.13;;
54145;SDS011;40052;49.422;7.738;2022-08-19T10:24:29;5.70;;;5.03;;
54145;SDS011;40052;49.422;7.738;2022-08-19T10:26:55;6.07;;;5.07;;
54145;SDS011;40052;49.422;7.738;2022-08-19T10:29:21;6.65;;;5.30;;
54145;SDS011;40052;49.422;7.738;2022-08-19T10:31:46;6.15;;;5.47;;
54145;SDS011;40052;49.422;7.738;2022-08-19T10:34:12;7.18;;;5.35;;
54145;SDS011;40052;49.422;7.738;2022-08-19T10:36:37;6.93;;;5.30;;
54145;SDS011;40052;49.422;7.738;2022-08-19T10:39:05;9.98;;;4.70;;
54145;SDS011;40052;49.422;7.738;2022-08-19T10:41:35;6.00;;;4.85;;
54145;SDS011;40052;49.422;7.738;2022-08-19T10:46:35;5.22;;;4.53;;
54145;SDS011;40052;49.422;7.738;2022-08-19T10:49:03;5.57;;;4.80;;
54145;SDS011;40052;49.422;7.738;2022-08-19T10:51:31;5.35;;;4.13;;
54145;SDS011;40052;49.422;7.738;2022-08-19T10:54:15;5.15;;;4.40;;
54145;SDS011;40052;49.422;7.738;2022-08-19T10:56:45;6.47;;;4.63;;
54145;SDS011;40052;49.422;7.738;2022-08-19T10:59:25;4.55;;;4.03;;
54145;SDS011;40052;49.422;7.738;2022-08-19T11:01:58;5.75;;;4.40;;
54145;SDS011;40052;49.422;7.738;2022-08-19T11:04:25;7.97;;;4.18;;
54145;SDS011;40052;49.422;7.738;2022-08-19T11:06:53;7.40;;;4.35;;
54145;SDS011;40052;49.422;7.738;2022-08-19T11:09:22;5.18;;;3.83;;
54145;SDS011;40052;49.422;7.738;2022-08-19T11:11:49;4.63;;;3.95;;
54145;SDS011;40052;49.422;7.738;2022-08-19T11:14:16;6.78;;;3.88;;
54145;SDS011;40052;49.422;7.738;2022-08-19T11:16:50;4.95;;;3.80;;
54145;SDS011;40052;49.422;7.738;2022-08-19T11:19:21;4.47;;;3.85;;
54145;SDS011;40052;49.422;7.738;2022-08-19T11:21:49;4.18;;;3.67;;
54145;SDS011;40052;49.422;7.738;2022-08-19T11:24:20;6.07;;;3.67;;
54145;SDS011;40052;49.422;7.738;2022-08-19T11:26:47;6.43;;;3.92;;
54145;SDS011;40052;49.422;7.738;2022-08-19T11:29:15;4.60;;;3.50;;
54145;SDS011;40052;49.422;7.738;2022-08-19T11:31:42;3.80;;;3.50;;
54145;SDS011;40052;49.422;7.738;2022-08-19T11:34:10;3.90;;;3.50;;
54145;SDS011;40052;49.422;7.738;2022-08-19T11:36:39;5.22;;;3.65;;
54145;SDS011;40052;49.422;7.738;2022-08-19T11:39:08;6.57;;;3.53;;
54145;SDS011;40052;49.422;7.738;2022-08-19T11:41:35;3.72;;;3.38;;
54145;SDS011;40052;49.422;7.738;2022-08-19T11:44:00;3.75;;;3.22;;
54145;SDS011;40052;49.422;7.738;2022-08-19T11:46:29;3.78;;;3.47;;
54145;SDS011;40052;49.422;7.738;2022-08-19T11:48:57;4.25;;;3.35;;
54145;SDS011;40052;49.422;7.738;2022-08-19T11:51:24;3.75;;;3.35;;
54145;SDS011;40052;49.422;7.738;2022-08-19T11:53:53;3.97;;;3.67;;
54145;SDS011;40052;49.422;7.738;2022-08-19T11:56:20;4.53;;;4.10;;
54145;SDS011;40052;49.422;7.738;2022-08-19T11:58:46;4.25;;;3.80;;
54145;SDS011;40052;49.422;7.738;2022-08-19T12:01:17;5.25;;;3.50;;
54145;SDS011;40052;49.422;7.738;2022-08-19T12:03:44;4.13;;;3.72;;
54145;SDS011;40052;49.422;7.738;2022-08-19T12:06:13;3.97;;;3.60;;
54145;SDS011;40052;49.422;7.738;2022-08-19T12:08:41;7.25;;;3.83;;
54145;SDS011;40052;49.422;7.738;2022-08-19T12:11:10;4.40;;;4.00;;
54145;SDS011;40052;49.422;7.738;2022-08-19T12:13:39;3.92;;;3.28;;
54145;SDS011;40052;49.422;7.738;2022-08-19T12:16:10;4.55;;;3.72;;
54145;SDS011;40052;49.422;7.738;2022-08-19T12:18:37;3.47;;;3.05;;
54145;SDS011;40052;49.422;7.738;2022-08-19T12:21:08;3.88;;;3.47;;
54145;SDS011;40052;49.422;7.738;2022-08-19T12:23:36;5.00;;;3.28;;
54145;SDS011;40052;49.422;7.738;2022-08-19T12:26:02;3.78;;;3.47;;
54145;SDS011;40052;49.422;7.738;2022-08-19T12:28:28;3.95;;;3.50;;
54145;SDS011;40052;49.422;7.738;2022-08-19T12:30:58;4.55;;;4.07;;
54145;SDS011;40052;49.422;7.738;2022-08-19T12:33:23;5.05;;;3.85;;
54145;SDS011;40052;49.422;7.738;2022-08-19T12:35:52;4.60;;;3.65;;
54145;SDS011;40052;49.422;7.738;2022-08-19T12:38:18;5.32;;;3.60;;
54145;SDS011;40052;49.422;7.738;2022-08-19T12:40:46;4.40;;;4.00;;
54145;SDS011;40052;49.422;7.738;2022-08-19T12:43:17;5.85;;;3.90;;
54145;SDS011;40052;49.422;7.738;2022-08-19T12:45:43;5.40;;;3.67;;
54145;SDS011;40052;49.422;7.738;2022-08-19T12:48:11;4.20;;;3.72;;
54145;SDS011;40052;49.422;7.738;2022-08-19T12:50:43;3.65;;;3.35;;
54145;SDS011;40052;49.422;7.738;2022-08-19T12:53:12;4.00;;;3.60;;
54145;SDS011;40052;49.422;7.738;2022-08-19T12:55:38;4.28;;;3.72;;
54145;SDS011;40052;49.422;7.738;2022-08-19T12:58:07;4.30;;;3.55;;
54145;SDS011;40052;49.422;7.738;2022-08-19T13:00:33;3.85;;;3.55;;
54145;SDS011;40052;49.422;7.738;2022-08-19T13:02:59;4.40;;;4.00;;
54145;SDS011;40052;49.422;7.738;2022-08-19T13:05:28;4.57;;;4.10;;
54145;SDS011;40052;49.422;7.738;2022-08-19T13:07:58;4.43;;;3.67;;
54145;SDS011;40052;49.422;7.738;2022-08-19T13:10:34;4.55;;;3.92;;
54145;SDS011;40052;49.422;7.738;2022-08-19T13:13:07;3.90;;;3.50;;
54145;SDS011;40052;49.422;7.738;2022-08-19T13:15:35;3.72;;;3.40;;
54145;SDS011;40052;49.422;7.738;2022-08-19T13:18:02;5.22;;;3.60;;
54145;SDS011;40052;49.422;7.738;2022-08-19T13:20:28;4.57;;;3.97;;
54145;SDS011;40052;49.422;7.738;2022-08-19T13:22:56;4.35;;;3.95;;
54145;SDS011;40052;49.422;7.738;2022-08-19T13:25:25;5.78;;;4.30;;
54145;SDS011;40052;49.422;7.738;2022-08-19T13:27:51;7.50;;;4.33;;
54145;SDS011;40052;49.422;7.738;2022-08-19T13:30:22;4.82;;;4.38;;
54145;SDS011;40052;49.422;7.738;2022-08-19T13:33:07;5.30;;;4.30;;
54145;SDS011;40052;49.422;7.738;2022-08-19T13:35:49;5.07;;;4.57;;
54145;SDS011;40052;49.422;7.738;2022-08-19T13:38:24;4.40;;;3.88;;
54145;SDS011;40052;49.422;7.738;2022-08-19T13:40:50;4.72;;;4.18;;
54145;SDS011;40052;49.422;7.738;2022-08-19T13:43:21;4.47;;;4.00;;
54145;SDS011;40052;49.422;7.738;2022-08-19T13:45:48;4.45;;;3.78;;
54145;SDS011;40052;49.422;7.738;2022-08-19T13:48:20;4.00;;;3.60;;
54145;SDS011;40052;49.422;7.738;2022-08-19T13:50:47;4.30;;;3.88;;
54145;SDS011;40052;49.422;7.738;2022-08-19T13:53:15;4.30;;;3.90;;
54145;SDS011;40052;49.422;7.738;2022-08-19T13:55:43;3.92;;;3.53;;
54145;SDS011;40052;49.422;7.738;2022-08-19T13:58:10;4.00;;;3.33;;
54145;SDS011;40052;49.422;7.738;2022-08-19T14:00:39;4.68;;;3.67;;
54145;SDS011;40052;49.422;7.738;2022-08-19T14:03:08;3.80;;;3.50;;
54145;SDS011;40052;49.422;7.738;2022-08-19T14:05:37;4.28;;;3.88;;
54145;SDS011;40052;49.422;7.738;2022-08-19T14:08:02;4.43;;;3.10;;
54145;SDS011;40052;49.422;7.738;2022-08-19T14:10:31;5.40;;;3.55;;
54145;SDS011;40052;49.422;7.738;2022-08-19T14:12:58;7.47;;;2.95;;
54145;SDS011;40052;49.422;7.738;2022-08-19T14:15:30;3.75;;;3.15;;
54145;SDS011;40052;49.422;7.738;2022-08-19T14:17:58;3.70;;;3.22;;
54145;SDS011;40052;49.422;7.738;2022-08-19T14:20:26;4.63;;;3.50;;
54145;SDS011;40052;49.422;7.738;2022-08-19T14:22:54;3.97;;;3.28;;
54145;SDS011;40052;49.422;7.738;2022-08-19T14:25:23;3.20;;;2.70;;
54145;SDS011;40052;49.422;7.738;2022-08-19T14:27:50;3.78;;;3.40;;
54145;SDS011;40052;49.422;7.738;2022-08-19T14:30:23;3.55;;;3.22;;
54145;SDS011;40052;49.422;7.738;2022-08-19T14:32:56;3.55;;;3.15;;
54145;SDS011;40052;49.422;7.738;2022-08-19T14:35:29;3.03;;;2.78;;
54145;SDS011;40052;49.422;7.738;2022-08-19T14:37:59;4.87;;;3.00;;
54145;SDS011;40052;49.422;7.738;2022-08-19T14:40:25;3.42;;;2.90;;
54145;SDS011;40052;49.422;7.738;2022-08-19T14:43:00;4.20;;;3.05;;
54145;SDS011;40052;49.422;7.738;2022-08-19T14:45:30;4.13;;;3.10;;
54145;SDS011;40052;49.422;7.738;2022-08-19T14:47:59;7.57;;;3.08;;
54145;SDS011;40052;49.422;7.738;2022-08-19T14:50:25;4.43;;;3.20;;
54145;SDS011;40052;49.422;7.738;2022-08-19T14:52:57;4.38;;;3.38;;
54145;SDS011;40052;49.422;7.738;2022-08-19T14:55:25;4.22;;;3.83;;
54145;SDS011;40052;49.422;7.738;2022-08-19T14:57:50;4.50;;;4.05;;
54145;SDS011;40052;49.422;7.738;2022-08-19T15:00:18;4.10;;;3.70;;